Time;durP1;ratioP1;P1;durP2;ratioP2;P2;SDS_P1;SDS_P2;PMS_P1;PMS_P2;Temp;Humidity;BMP_temperature;BMP_pressure;BME280_temperature;BME280_humidity;BME280_pressure;Samples;Min_cycle;Max_cycle;Signal;HPM_P1;HPM_P2
2022/06/21 00:01:48;;;;;;;10.18;8.18;;;;;;;21.10;100.00;99386.41;6216250;23;20016;-81
2022/06/21 00:04:14;;;;;;;17.73;8.52;;;;;;;21.16;100.00;99383.56;6216837;23;20058;-81
2022/06/21 00:06:39;;;;;;;10.25;8.73;;;;;;;21.14;100.00;99389.75;6243316;23;20039;-82
2022/06/21 00:09:05;;;;;;;13.00;8.40;;;;;;;21.15;100.00;99394.06;6217157;23;20004;-82
2022/06/21 00:11:33;;;;;;;11.32;8.70;;;;;;;21.09;100.00;99401.78;6244027;23;20374;-82
2022/06/21 00:13:59;;;;;;;11.90;8.98;;;;;;;21.09;100.00;99395.38;6216099;23;20342;-82
2022/06/21 00:16:26;;;;;;;12.23;8.90;;;;;;;21.08;100.00;99388.22;6243398;23;20018;-82
2022/06/21 00:18:52;;;;;;;11.90;8.27;;;;;;;21.05;100.00;99373.13;6216179;23;20394;-82
2022/06/21 00:21:36;;;;;;;13.20;8.80;;;;;;;21.06;100.00;99369.00;6216515;23;20012;-82
2022/06/21 00:24:02;;;;;;;10.63;8.63;;;;;;;21.05;100.00;99366.72;6242989;23;20462;-82
2022/06/21 00:26:29;;;;;;;11.20;8.65;;;;;;;20.97;100.00;99368.56;6216849;23;20000;-82
2022/06/21 00:28:55;;;;;;;9.75;8.68;;;;;;;21.01;100.00;99389.56;6243176;23;20457;-82
2022/06/21 00:31:25;;;;;;;13.02;9.18;;;;;;;20.93;100.00;99382.94;6243565;23;20005;-82
2022/06/21 00:33:50;;;;;;;12.35;8.60;;;;;;;20.91;100.00;99379.88;6191241;23;20015;-82
2022/06/21 00:36:28;;;;;;;15.95;9.55;;;;;;;20.88;100.00;99376.06;6190664;23;20439;-82
2022/06/21 00:38:55;;;;;;;13.55;9.75;;;;;;;20.86;100.00;99375.06;6243071;23;20012;-82
2022/06/21 00:41:36;;;;;;;13.45;8.45;;;;;;;20.85;100.00;99357.38;6243114;23;20012;-81
2022/06/21 00:44:04;;;;;;;13.77;8.65;;;;;;;20.84;100.00;99350.22;6216180;23;20008;-82
2022/06/21 00:46:40;;;;;;;13.52;9.00;;;;;;;20.81;100.00;99353.31;6191387;23;20042;-82
2022/06/21 00:49:17;;;;;;;12.15;9.02;;;;;;;20.78;100.00;99360.00;6243505;23;20012;-82
2022/06/21 00:51:43;;;;;;;12.88;9.20;;;;;;;20.76;100.00;99362.56;6215854;23;20082;-82
2022/06/21 00:54:19;;;;;;;13.90;9.32;;;;;;;20.70;100.00;99359.03;6215674;23;20438;-82
2022/06/21 00:56:52;;;;;;;13.75;8.77;;;;;;;20.69;100.00;99365.97;6214866;23;20019;-82
2022/06/21 00:59:20;;;;;;;15.00;9.32;;;;;;;20.63;100.00;99368.03;6214666;23;20024;-83
2022/06/21 01:01:46;;;;;;;11.20;8.77;;;;;;;20.61;100.00;99367.81;6207972;22;20122;-88
2022/06/21 01:04:16;;;;;;;13.65;9.20;;;;;;;20.57;100.00;99368.09;6218436;22;20046;-89
2022/06/21 01:06:44;;;;;;;13.25;9.10;;;;;;;20.57;100.00;99361.69;6273564;22;20018;-89
2022/06/21 01:09:25;;;;;;;16.02;9.23;;;;;;;20.58;100.00;99371.69;6196359;22;20031;-88
2022/06/21 01:12:09;;;;;;;10.88;8.63;;;;;;;20.56;100.00;99385.50;6220388;22;20035;-89
2022/06/21 01:14:36;;;;;;;14.57;8.50;;;;;;;20.53;100.00;99375.28;6221470;22;20007;-88
2022/06/21 01:17:03;;;;;;;10.48;8.65;;;;;;;20.48;100.00;99383.25;6245748;22;20007;-88
2022/06/21 01:19:36;;;;;;;12.80;9.05;;;;;;;20.44;100.00;99382.75;6221358;22;20008;-88
2022/06/21 01:22:09;;;;;;;11.88;9.40;;;;;;;20.42;100.00;99367.66;6220118;22;20043;-88
2022/06/21 01:24:43;;;;;;;11.93;9.30;;;;;;;20.34;100.00;99369.50;6220715;22;20008;-88
2022/06/21 01:27:08;;;;;;;11.73;9.60;;;;;;;20.31;100.00;99364.91;6246221;22;20082;-88
2022/06/21 01:29:35;;;;;;;11.68;9.68;;;;;;;20.25;100.00;99359.28;6221833;22;20457;-88
2022/06/21 01:32:04;;;;;;;13.75;9.60;;;;;;;20.23;100.00;99363.88;6246695;22;20023;-88
2022/06/21 01:34:29;;;;;;;13.32;9.55;;;;;;;20.24;100.00;99356.97;6221218;22;20015;-89
2022/06/21 01:37:07;;;;;;;10.65;9.10;;;;;;;20.18;100.00;99359.81;6218283;22;20448;-89
2022/06/21 01:39:48;;;;;;;10.68;8.85;;;;;;;20.14;100.00;99370.56;6245161;22;20018;-88
2022/06/21 01:42:20;;;;;;;12.55;9.15;;;;;;;20.16;100.00;99375.69;6220344;22;20004;-87
2022/06/21 01:44:49;;;;;;;13.05;9.40;;;;;;;20.11;100.00;99374.44;6246712;22;20083;-86
2022/06/21 01:47:18;;;;;;;11.48;9.55;;;;;;;20.12;100.00;99373.16;6245651;22;20053;-87
2022/06/21 01:49:50;;;;;;;13.13;8.95;;;;;;;20.07;100.00;99373.94;6273093;22;20016;-86
2022/06/21 01:52:19;;;;;;;10.38;9.27;;;;;;;20.06;100.00;99378.03;6195164;22;20012;-87
2022/06/21 01:54:52;;;;;;;10.00;9.00;;;;;;;20.08;100.00;99377.53;6220378;22;20445;-86
2022/06/21 01:57:18;;;;;;;13.48;9.05;;;;;;;20.01;100.00;99376.03;6220003;22;20087;-88
2022/06/21 01:59:46;;;;;;;14.43;8.82;;;;;;;19.98;100.00;99385.50;6220971;22;20101;-88
2022/06/21 02:02:14;;;;;;;11.20;9.27;;;;;;;19.93;100.00;99383.47;6236195;22;20333;-88
2022/06/21 02:04:47;;;;;;;10.70;8.73;;;;;;;19.94;100.00;99385.00;6253605;22;20061;-88
2022/06/21 02:07:13;;;;;;;;;;;;;;;19.91;100.00;99394.47;6253292;22;20015;-89
2022/06/21 02:09:47;;;;;;;10.57;9.10;;;;;;;19.86;100.00;99390.38;6279028;22;19907;-89
2022/06/21 02:12:14;;;;;;;11.80;9.45;;;;;;;19.87;100.00;99391.16;6279672;22;20437;-88
2022/06/21 02:14:47;;;;;;;11.93;9.25;;;;;;;19.84;100.00;99386.56;6253237;22;20078;-88
2022/06/21 02:17:18;;;;;;;12.75;8.95;;;;;;;19.84;100.00;99392.19;6253631;22;20318;-89
2022/06/21 02:19:47;;;;;;;13.13;9.90;;;;;;;19.75;100.00;99403.72;6253614;22;20061;-88
2022/06/21 02:22:23;;;;;;;13.63;9.45;;;;;;;19.75;100.00;99406.53;6253660;22;20090;-88
2022/06/21 02:24:50;;;;;;;12.98;9.35;;;;;;;19.74;100.00;99410.63;6279136;22;20011;-88
2022/06/21 02:27:17;;;;;;;11.40;9.48;;;;;;;19.69;100.00;99397.38;6254495;22;20003;-89
2022/06/21 02:29:44;;;;;;;14.52;9.65;;;;;;;19.65;100.00;99397.63;6278475;22;20015;-88
2022/06/21 02:32:19;;;;;;;12.77;9.48;;;;;;;19.62;100.00;99392.25;6254298;22;20003;-88
2022/06/21 02:34:45;;;;;;;11.57;9.82;;;;;;;19.59;100.00;99376.41;6253498;22;20448;-88
2022/06/21 02:37:13;;;;;;;14.00;9.82;;;;;;;19.54;100.00;99370.28;6253880;22;20296;-87
2022/06/21 02:39:38;;;;;;;11.25;10.00;;;;;;;19.53;100.00;99379.97;6253148;22;20011;-87
2022/06/21 02:42:12;;;;;;;13.15;9.70;;;;;;;19.55;100.00;99388.69;6278214;22;20011;-87
2022/06/21 02:44:40;;;;;;;12.57;10.13;;;;;;;19.49;100.00;99385.09;6277215;22;20014;-86
2022/06/21 02:47:12;;;;;;;12.80;10.70;;;;;;;19.49;100.00;99382.28;6252288;22;19999;-86
2022/06/21 02:49:55;;;;;;;12.82;9.93;;;;;;;19.43;100.00;99389.97;6253148;22;20419;-86
2022/06/21 02:52:22;;;;;;;11.90;9.55;;;;;;;19.45;100.00;99400.72;6253227;22;20015;-87
2022/06/21 02:54:53;;;;;;;12.57;10.50;;;;;;;19.43;100.00;99406.84;6227694;22;20042;-86
2022/06/21 02:57:27;;;;;;;12.90;10.55;;;;;;;19.42;100.00;99390.47;6278717;22;20015;-87
2022/06/21 02:59:53;;;;;;;11.25;10.05;;;;;;;19.45;100.00;99383.84;6251923;22;20011;-86
2022/06/21 03:02:26;;;;;;;14.27;10.93;;;;;;;19.47;100.00;99392.53;6227267;22;20027;-85
2022/06/21 03:04:53;;;;;;;;;;;;;;;19.49;100.00;99404.78;6306178;22;20015;-86
2022/06/21 03:07:40;;;;;;;13.57;10.45;;;;;;;19.48;100.00;99405.31;6278715;22;19915;-87
2022/06/21 03:10:08;;;;;;;16.17;10.45;;;;;;;19.51;100.00;99405.06;6252513;22;20333;-87
2022/06/21 03:12:34;;;;;;;14.85;11.10;;;;;;;19.49;100.00;99407.59;6252650;22;20043;-86
2022/06/21 03:15:02;;;;;;;15.20;11.10;;;;;;;19.50;100.00;99411.19;6253503;22;20038;-89
2022/06/21 03:17:37;;;;;;;13.50;9.93;;;;;;;19.50;100.00;99431.66;6252943;22;20004;-91
2022/06/21 03:20:03;;;;;;;13.43;10.68;;;;;;;19.50;100.00;99431.66;6253111;22;20007;-87
2022/06/21 03:22:34;;;;;;;12.60;10.02;;;;;;;19.42;100.00;99416.56;6277696;22;20027;-87
2022/06/21 03:25:04;;;;;;;13.68;9.85;;;;;;;19.46;100.00;99436.75;6278503;22;20007;-89
2022/06/21 03:27:36;;;;;;;11.52;9.07;;;;;;;19.45;100.00;99438.03;6252896;22;20007;-87
2022/06/21 03:30:02;;;;;;;11.38;9.55;;;;;;;19.38;100.00;99432.91;6252915;22;20034;-87
2022/06/21 03:32:30;;;;;;;12.18;9.13;;;;;;;19.36;100.00;99441.09;6227812;22;20003;-87
2022/06/21 03:34:55;;;;;;;12.15;9.30;;;;;;;19.29;100.00;99438.78;6277724;22;20038;-86
2022/06/21 03:37:21;;;;;;;9.70;8.60;;;;;;;19.30;100.00;99450.81;6252050;22;20441;-87
2022/06/21 03:42:34;;;;;;;9.80;8.27;;;;;;;19.18;100.00;99471.75;6281888;22;20053;-88
2022/06/21 03:45:24;;;;;;;11.90;8.48;;;;;;;19.10;100.00;99468.69;6278453;22;20090;-86
2022/06/21 03:48:09;;;;;;;10.20;8.77;;;;;;;19.08;100.00;99457.19;6277054;22;20455;-86
2022/06/21 03:50:39;;;;;;;13.38;8.65;;;;;;;19.08;100.00;99460.00;6252161;22;20011;-85
2022/06/21 03:53:24;;;;;;;8.93;7.75;;;;;;;19.01;98.05;99474.53;6251497;22;20008;-85
2022/06/21 03:56:15;;;;;;;9.82;7.22;;;;;;;19.00;95.69;99484.25;6251748;22;20086;-86
2022/06/21 03:59:29;;;;;;;8.45;6.47;;;;;;;18.98;95.64;99526.16;6277142;22;20413;-86
2022/06/21 04:02:06;;;;;;;10.73;6.07;;;;;;;18.93;93.64;99515.66;6124769;23;20018;-88
2022/06/21 04:04:43;;;;;;;9.15;6.30;;;;;;;18.94;94.00;99517.97;6125495;23;20076;-86
2022/06/21 04:07:41;;;;;;;7.22;5.80;;;;;;;18.92;92.75;99522.56;6256054;22;20011;-86
2022/06/21 04:10:10;;;;;;;7.47;5.68;;;;;;;18.89;92.26;99506.69;6210904;22;20069;-90
2022/06/21 04:12:52;;;;;;;7.93;5.63;;;;;;;18.90;92.60;99502.63;6252045;22;20437;-86
2022/06/21 04:15:22;;;;;;;7.00;5.28;;;;;;;18.90;91.52;99497.00;6226908;22;20052;-86
2022/06/21 04:17:54;;;;;;;5.95;5.28;;;;;;;18.89;90.98;99501.06;6252074;22;20015;-87
2022/06/21 04:20:20;;;;;;;7.97;4.78;;;;;;;18.86;90.17;99499.28;6276964;22;20015;-87
2022/06/21 04:22:51;;;;;;;5.47;4.40;;;;;;;18.74;90.08;99489.28;6251246;22;20430;-86
2022/06/21 04:25:25;;;;;;;6.32;4.60;;;;;;;18.68;89.68;99503.34;6249436;22;20085;-87
2022/06/21 04:28:11;;;;;;;4.47;4.00;;;;;;;18.61;89.03;99527.03;6248905;22;20436;-86
2022/06/21 04:31:17;;;;;;;4.22;3.83;;;;;;;18.56;87.68;99513.00;6252499;22;20344;-86
2022/06/21 04:33:54;;;;;;;6.80;3.50;;;;;;;18.56;86.82;99524.22;6223538;22;20018;-88
2022/06/21 04:36:26;;;;;;;4.47;3.65;;;;;;;18.56;85.90;99524.97;6275970;22;20365;-90
2022/06/21 04:39:02;;;;;;;4.47;3.58;;;;;;;18.57;85.61;99515.28;6277228;22;20026;-89
2022/06/21 04:41:37;;;;;;;4.70;3.45;;;;;;;18.53;84.31;99513.97;6276617;22;20456;-88
2022/06/21 04:44:08;;;;;;;4.45;2.88;;;;;;;18.44;83.37;99514.94;6277056;22;20452;-88
2022/06/21 04:46:44;;;;;;;3.83;2.58;;;;;;;18.41;83.41;99518.75;6225900;22;20015;-88
2022/06/21 04:49:33;;;;;;;3.60;2.72;;;;;;;18.37;82.79;99521.03;6251515;22;20008;-89
2022/06/21 04:52:07;;;;;;;3.28;2.30;;;;;;;18.37;82.18;99523.06;6251003;22;20441;-88
2022/06/21 04:54:34;;;;;;;3.00;2.47;;;;;;;18.38;81.72;99530.22;6303593;22;20507;-91
2022/06/21 04:57:11;;;;;;;2.67;2.28;;;;;;;18.42;81.38;99531.53;6226405;22;20015;-90
2022/06/21 04:59:44;;;;;;;3.78;2.78;;;;;;;18.49;81.57;99535.91;6251860;22;20007;-90
2022/06/21 05:02:23;;;;;;;4.65;3.22;;;;;;;18.55;81.69;99528.31;6275999;22;20015;-89
2022/06/21 05:04:51;;;;;;;4.57;2.55;;;;;;;18.46;81.45;99531.28;6252675;22;20007;-90
2022/06/21 05:07:19;;;;;;;4.35;2.53;;;;;;;18.50;82.35;99537.44;6305377;22;20014;-86
2022/06/21 05:09:45;;;;;;;3.45;2.60;;;;;;;18.54;82.90;99557.66;6277647;22;20011;-89
2022/06/21 05:12:24;;;;;;;3.35;2.95;;;;;;;18.59;82.96;99545.69;6277615;22;20078;-89
2022/06/21 05:14:53;;;;;;;6.93;2.80;;;;;;;18.73;82.92;99560.78;6276381;22;20018;-90
2022/06/21 05:17:19;;;;;;;4.60;2.70;;;;;;;18.78;81.91;99568.50;6276976;22;20014;-88
2022/06/21 05:19:48;;;;;;;3.33;2.60;;;;;;;18.80;80.83;99577.19;6226460;22;20014;-89
2022/06/21 05:22:15;;;;;;;4.68;2.20;;;;;;;18.74;79.92;99593.25;6228457;22;20011;-90
2022/06/21 05:24:41;;;;;;;3.30;2.30;;;;;;;18.72;79.30;99590.19;6253062;22;20041;-89
2022/06/21 05:27:34;;;;;;;2.90;2.22;;;;;;;18.74;79.47;99596.06;6308100;22;20448;-90
2022/06/21 05:30:15;;;;;;;4.00;2.30;;;;;;;18.84;79.00;99600.19;6256166;22;20445;-87
2022/06/21 05:32:45;;;;;;;3.33;2.30;;;;;;;18.91;77.89;99606.09;6280263;22;20021;-87
2022/06/21 05:35:22;;;;;;;3.13;2.20;;;;;;;18.93;77.00;99602.78;6253419;22;20022;-87
2022/06/21 05:38:11;;;;;;;2.50;1.98;;;;;;;18.91;76.40;99613.78;6253207;22;20046;-87
2022/06/21 05:40:46;;;;;;;3.35;2.10;;;;;;;18.98;75.68;99602.81;6229211;22;20015;-85
2022/06/21 05:43:15;;;;;;;2.75;2.20;;;;;;;19.05;75.90;99626.84;6252632;22;20019;-86
2022/06/21 05:45:45;;;;;;;6.25;2.20;;;;;;;19.21;75.26;99623.31;6278994;22;20014;-90
2022/06/21 05:48:20;;;;;;;4.40;2.10;;;;;;;19.18;72.77;99607.47;6229943;22;20015;-85
2022/06/21 05:50:46;;;;;;;2.85;1.92;;;;;;;19.29;73.11;99618.00;6250768;22;20109;-85
2022/06/21 05:53:19;;;;;;;4.28;2.30;;;;;;;19.27;71.27;99621.31;6276531;22;20049;-88
2022/06/21 05:55:46;;;;;;;3.38;2.10;;;;;;;19.39;71.65;99613.66;6250194;22;20026;-86
2022/06/21 05:58:17;;;;;;;2.13;1.92;;;;;;;19.57;70.71;99632.16;6275624;22;20409;-88
2022/06/21 06:00:50;;;;;;;5.57;2.83;;;;;;;19.64;69.09;99615.53;6252434;22;20022;-86
2022/06/21 06:03:38;;;;;;;3.80;2.40;;;;;;;19.80;68.38;99633.72;6249638;22;20015;-87
2022/06/21 06:06:10;;;;;;;3.33;1.80;;;;;;;19.79;61.57;99643.44;6275911;22;20011;-86
2022/06/21 06:08:39;;;;;;;2.63;1.77;;;;;;;19.76;58.23;99642.41;6276060;22;20015;-86
2022/06/21 06:11:18;;;;;;;3.35;1.98;;;;;;;19.80;58.23;99620.44;6279751;22;20510;-87
2022/06/21 06:13:46;;;;;;;2.90;1.30;;;;;;;19.96;55.09;99630.16;6230328;22;20468;-87
2022/06/21 06:16:28;;;;;;;2.65;1.55;;;;;;;19.98;52.92;99636.03;6278132;22;20068;-88
2022/06/21 06:18:59;;;;;;;5.10;1.60;;;;;;;19.87;52.45;99647.28;6251870;22;20018;-86
2022/06/21 06:21:29;;;;;;;6.57;1.77;;;;;;;19.95;53.21;99662.38;6254838;22;20357;-88
2022/06/21 06:24:15;;;;;;;4.03;2.13;;;;;;;20.15;53.71;99653.69;6226192;22;20026;-88
2022/06/21 06:26:43;;;;;;;5.85;2.22;;;;;;;20.42;53.68;99650.13;6226353;22;20015;-87
2022/06/21 06:29:22;;;;;;;4.40;1.80;;;;;;;20.42;52.62;99658.56;6278386;22;20010;-87
2022/06/21 06:31:52;;;;;;;3.97;1.60;;;;;;;20.47;52.83;99662.66;6253531;22;20011;-87
2022/06/21 06:34:21;;;;;;;5.65;1.85;;;;;;;20.33;52.53;99681.38;6251104;22;20053;-86
2022/06/21 06:36:52;;;;;;;5.15;1.90;;;;;;;20.28;53.41;99690.56;6251297;22;20010;-86
2022/06/21 06:39:25;;;;;;;3.40;1.95;;;;;;;20.52;53.70;99686.47;6301949;22;20042;-88
2022/06/21 06:42:00;;;;;;;4.75;1.65;;;;;;;20.88;52.68;99668.47;6280676;22;20015;-88
2022/06/21 06:44:28;;;;;;;3.80;1.75;;;;;;;20.87;52.26;99672.56;6255081;22;20011;-87
2022/06/21 06:46:55;;;;;;;10.07;1.80;;;;;;;20.40;52.42;99691.34;6256551;22;20441;-88
2022/06/21 06:49:38;;;;;;;3.90;1.55;;;;;;;20.09;53.22;99678.28;6277657;22;20015;-88
2022/06/21 06:52:13;;;;;;;3.60;1.70;;;;;;;20.16;53.91;99660.88;6280018;22;20531;-88
2022/06/21 06:54:48;;;;;;;2.85;1.80;;;;;;;20.56;53.32;99681.34;6253728;22;20018;-89
2022/06/21 06:57:37;;;;;;;2.25;1.80;;;;;;;20.98;52.44;99688.72;6254225;22;20043;-88
2022/06/21 07:00:12;;;;;;;5.35;2.10;;;;;;;21.29;50.06;99666.56;6306455;22;20035;-88
2022/06/21 07:02:45;;;;;;;3.50;1.60;;;;;;;21.66;48.72;99674.59;6278519;22;20065;-88
2022/06/21 07:05:19;;;;;;;3.38;1.70;;;;;;;21.84;47.97;99673.16;6255767;22;20011;-89
2022/06/21 07:07:55;;;;;;;2.97;1.80;;;;;;;22.13;46.68;99678.13;6254263;22;20011;-89
2022/06/21 07:10:23;;;;;;;3.53;2.10;;;;;;;22.40;46.92;99681.25;6254383;22;20081;-87
2022/06/21 07:12:50;;;;;;;5.53;2.33;;;;;;;22.49;46.11;99675.25;6227897;22;20053;-88
2022/06/21 07:15:17;;;;;;;2.83;1.65;;;;;;;22.65;46.09;99672.25;6277731;22;20012;-88
2022/06/21 07:17:47;;;;;;;4.18;2.00;;;;;;;22.75;45.47;99676.31;6227384;22;20011;-88
2022/06/21 07:20:37;;;;;;;4.20;2.00;;;;;;;22.69;45.96;99674.81;6278087;22;20007;-88
2022/06/21 07:23:08;;;;;;;6.55;1.90;;;;;;;22.54;46.19;99675.22;6233723;22;20097;-88
2022/06/21 07:25:38;;;;;;;3.70;1.77;;;;;;;22.48;46.60;99679.41;6227382;22;20022;-88
2022/06/21 07:28:29;;;;;;;5.20;2.08;;;;;;;22.53;46.61;99689.84;6278877;22;20015;-88
2022/06/21 07:30:58;;;;;;;3.88;2.00;;;;;;;22.52;46.86;99668.56;6253593;22;20049;-86
2022/06/21 07:33:38;;;;;;;2.78;1.65;;;;;;;22.78;45.80;99692.22;6278541;22;20017;-89
2022/06/21 07:36:11;;;;;;;2.42;1.83;;;;;;;22.80;45.60;99682.44;6278331;22;20429;-88
2022/06/21 07:38:50;;;;;;;3.00;1.63;;;;;;;22.95;44.64;99672.25;6226479;22;20015;-87
2022/06/21 07:41:27;;;;;;;4.05;1.70;;;;;;;23.11;44.11;99679.78;6227830;22;20026;-89
2022/06/21 07:43:57;;;;;;;5.75;1.50;;;;;;;23.27;44.84;99682.94;6278719;22;20019;-88
2022/06/21 07:46:39;;;;;;;2.65;1.60;;;;;;;23.58;44.05;99685.88;6254012;22;20060;-88
2022/06/21 07:49:30;;;;;;;5.30;1.70;;;;;;;23.72;44.29;99685.97;6279439;22;20011;-88
2022/06/21 07:51:59;;;;;;;1.83;1.63;;;;;;;23.93;42.96;99690.56;6253399;22;20073;-88
2022/06/21 07:54:29;;;;;;;3.25;1.70;;;;;;;24.02;43.02;99704.31;6228526;22;20011;-89
2022/06/21 07:57:17;;;;;;;3.72;1.67;;;;;;;24.19;42.57;99701.25;6254180;22;20018;-88
2022/06/21 07:59:47;;;;;;;4.20;1.70;;;;;;;24.12;42.10;99705.44;6254763;22;20054;-88
2022/06/21 08:08:00;;;;;;;4.25;1.77;;;;;;;23.34;44.01;99702.91;6282188;22;20007;-88
2022/06/21 08:10:39;;;;;;;4.82;2.20;;;;;;;23.27;43.58;99702.75;6251360;22;20095;-88
2022/06/21 08:13:04;;;;;;;3.33;1.88;;;;;;;23.18;44.52;99707.47;6251342;22;20014;-88
2022/06/21 08:15:39;;;;;;;3.38;1.90;;;;;;;23.03;43.44;99712.78;6251279;22;20011;-87
2022/06/21 08:18:10;;;;;;;6.18;2.33;;;;;;;23.24;45.04;99715.91;6254260;22;20891;-87
2022/06/21 08:20:35;;;;;;;8.90;2.05;;;;;;;23.41;44.26;99710.81;6253443;22;20015;-85
2022/06/21 08:23:05;;;;;;;9.63;6.75;;;;;;;23.39;44.10;99710.56;6252342;22;20015;-86
2022/06/21 08:25:48;;;;;;;4.35;2.45;;;;;;;23.43;44.72;99704.63;6228603;22;20015;-87
2022/06/21 08:28:19;;;;;;;5.93;3.97;;;;;;;23.79;44.36;99708.78;6307296;22;20014;-87
2022/06/21 08:30:50;;;;;;;10.38;6.00;;;;;;;24.06;42.17;99699.09;6280725;22;20015;-88
2022/06/21 08:33:32;;;;;;;4.78;2.10;;;;;;;24.15;40.63;99718.56;6255244;22;20021;-88
2022/06/21 08:36:51;;;;;;;4.10;2.22;;;;;;;23.77;41.42;99714.22;6253063;22;20034;-88
2022/06/21 08:39:25;;;;;;;8.73;2.10;;;;;;;23.45;42.86;99708.47;6234783;22;20015;-88
2022/06/21 08:42:02;;;;;;;4.50;1.90;;;;;;;23.12;43.37;99720.16;6281215;22;20015;-88
2022/06/21 08:44:49;;;;;;;6.25;2.28;;;;;;;22.86;43.97;99715.00;6259673;22;20106;-87
2022/06/21 08:47:32;;;;;;;4.40;2.08;;;;;;;22.93;44.97;99714.41;6309200;22;20011;-88
2022/06/21 08:50:12;;;;;;;;;;;;;;;22.90;43.64;99707.00;6309359;22;20018;-88
2022/06/21 08:52:45;;;;;;;3.13;2.20;;;;;;;23.01;44.14;99704.03;6295779;22;19914;-85
2022/06/21 08:55:21;;;;;;;5.97;2.27;;;;;;;23.03;44.46;99706.34;6301283;22;20011;-86
2022/06/21 08:58:02;;;;;;;5.95;2.20;;;;;;;22.92;44.81;99704.44;6243709;22;20348;-87
2022/06/21 09:00:35;;;;;;;5.05;2.58;;;;;;;23.00;45.54;99691.22;6294900;22;20044;-88
2022/06/21 09:03:12;;;;;;;6.93;2.97;;;;;;;23.23;45.67;99689.66;6256074;22;20147;-88
2022/06/21 09:06:01;;;;;;;6.43;2.35;;;;;;;23.31;44.29;99687.00;6281817;22;20011;-88
2022/06/21 09:08:36;;;;;;;9.95;2.25;;;;;;;23.55;44.20;99677.69;6236338;22;20015;-88
2022/06/21 09:11:49;;;;;;;6.97;2.30;;;;;;;23.74;43.89;99691.88;6318816;22;20141;-87
2022/06/21 09:14:51;;;;;;;5.70;2.15;;;;;;;23.81;43.40;99685.59;6134199;23;20431;-88
2022/06/21 09:17:28;;;;;;;6.72;2.88;;;;;;;23.74;45.37;99694.72;6160868;23;20021;-88
2022/06/21 09:20:17;;;;;;;3.30;2.38;;;;;;;24.07;44.20;99700.63;6246054;22;20023;-88
2022/06/21 09:23:04;;;;;;;5.97;2.25;;;;;;;24.12;44.35;99694.13;6258549;22;20015;-89
2022/06/21 09:25:47;;;;;;;4.30;2.40;;;;;;;24.17;42.85;99692.53;6283074;22;20011;-86
2022/06/21 09:28:19;;;;;;;4.55;3.00;;;;;;;24.19;42.51;99689.13;6232245;22;20511;-87
2022/06/21 09:30:50;;;;;;;6.40;3.35;;;;;;;24.29;42.42;99690.28;6285816;22;20011;-87
2022/06/21 09:33:46;;;;;;;3.40;2.22;;;;;;;24.53;43.35;99698.63;6232500;22;20424;-87
2022/06/21 09:36:32;;;;;;;4.88;2.20;;;;;;;24.56;42.18;99700.38;6230706;22;20041;-88
2022/06/21 09:39:16;;;;;;;4.97;2.10;;;;;;;24.35;42.89;99693.75;6263467;22;20455;-88
2022/06/21 09:42:17;;;;;;;5.88;2.30;;;;;;;24.37;43.02;99694.00;6257913;22;20018;-87
2022/06/21 09:44:50;;;;;;;5.82;2.90;;;;;;;24.25;43.59;99701.16;6240242;22;20015;-88
2022/06/21 09:47:22;;;;;;;2.95;2.20;;;;;;;24.21;44.35;99692.22;6316833;22;20011;-88
2022/06/21 09:50:22;;;;;;;5.03;2.28;;;;;;;24.27;45.04;99695.69;6258856;22;20011;-88
2022/06/21 09:53:00;;;;;;;5.85;2.20;;;;;;;24.39;43.35;99702.72;6279944;22;20019;-88
2022/06/21 09:56:00;;;;;;;4.90;2.50;;;;;;;24.28;44.46;99702.91;6255185;22;20354;-87
2022/06/21 09:58:32;;;;;;;5.53;2.30;;;;;;;24.24;43.15;99711.72;6256868;22;20047;-87
2022/06/21 10:01:19;;;;;;;6.80;2.30;;;;;;;24.26;44.37;99699.88;6257829;22;20031;-88
2022/06/21 10:04:15;;;;;;;7.50;2.80;;;;;;;24.44;44.43;99688.47;6284180;22;20051;-88
2022/06/21 10:07:09;;;;;;;9.20;2.80;;;;;;;24.79;43.62;99709.25;6259611;22;20015;-88
2022/06/21 10:09:54;;;;;;;6.93;4.03;;;;;;;25.10;43.21;99710.50;6261509;22;20034;-89
2022/06/21 10:12:25;;;;;;;7.55;3.47;;;;;;;25.32;43.48;99707.22;6235726;22;20021;-87
2022/06/21 10:15:16;;;;;;;4.78;2.10;;;;;;;25.48;44.38;99714.63;6260669;22;20035;-87
2022/06/21 10:18:11;;;;;;;4.95;2.30;;;;;;;25.16;42.42;99705.47;6291931;22;20014;-88
2022/06/21 10:20:55;;;;;;;5.15;2.53;;;;;;;24.75;43.89;99711.66;6293309;22;20448;-87
2022/06/21 10:23:34;;;;;;;9.30;2.60;;;;;;;24.87;43.98;99702.41;6318604;22;20015;-89
2022/06/21 10:26:18;;;;;;;4.45;2.25;;;;;;;25.04;43.79;99717.03;6314231;22;20015;-89
2022/06/21 10:28:57;;;;;;;4.82;2.40;;;;;;;25.20;43.13;99708.75;6310319;22;20082;-89
2022/06/21 10:31:39;;;;;;;5.05;2.10;;;;;;;25.24;43.39;99712.78;6280064;22;20038;-89
2022/06/21 10:34:20;;;;;;;5.25;2.40;;;;;;;24.94;43.73;99709.53;6236397;22;20019;-88
2022/06/21 10:37:07;;;;;;;8.38;2.60;;;;;;;25.03;44.27;99715.50;6315621;22;20004;-89
2022/06/21 10:39:57;;;;;;;6.35;2.60;;;;;;;25.07;45.38;99715.94;6286470;22;20094;-89
2022/06/21 10:42:47;;;;;;;3.67;2.30;;;;;;;25.07;44.16;99710.28;6281322;22;20080;-88
2022/06/21 10:45:40;;;;;;;6.03;3.08;;;;;;;24.88;44.28;99711.69;6310042;22;20068;-89
2022/06/21 10:48:44;;;;;;;3.75;2.45;;;;;;;24.78;44.49;99702.81;6258052;22;20087;-88
2022/06/21 10:51:42;;;;;;;7.28;2.95;;;;;;;24.65;45.43;99685.78;6311741;22;20022;-89
2022/06/21 10:54:21;;;;;;;6.20;3.13;;;;;;;24.71;43.97;99697.78;6255138;22;20046;-89
2022/06/21 10:57:11;;;;;;;3.90;2.58;;;;;;;24.78;44.25;99702.81;6256724;22;20007;-89
2022/06/21 11:02:46;;;;;;;5.03;2.72;;;;;;;24.80;44.89;99708.69;6310015;22;20042;-87
2022/06/21 11:05:33;;;;;;;7.68;2.67;;;;;;;24.82;44.98;99700.44;6307262;22;20015;-88
2022/06/21 11:08:33;;;;;;;6.07;2.75;;;;;;;25.14;46.24;99708.09;6281520;22;20349;-88
2022/06/21 11:11:13;;;;;;;5.82;2.47;;;;;;;25.48;44.25;99704.03;6278366;22;20087;-88
2022/06/21 11:14:02;;;;;;;5.97;2.28;;;;;;;25.63;43.24;99697.81;6283079;22;20067;-88
2022/06/21 11:16:43;;;;;;;7.50;2.40;;;;;;;25.67;43.07;99703.94;6187430;22;20015;-89
2022/06/21 11:19:11;;;;;;;6.20;2.50;;;;;;;25.67;43.95;99698.25;6282961;22;20010;-89
2022/06/21 11:21:56;;;;;;;4.95;2.55;;;;;;;25.52;42.41;99703.69;6285552;22;20017;-87
2022/06/21 11:24:57;;;;;;;5.68;3.00;;;;;;;25.24;43.95;99701.44;6261917;22;20018;-88
2022/06/21 11:27:48;;;;;;;4.78;2.70;;;;;;;24.96;44.85;99696.31;6262201;22;20090;-89
2022/06/21 11:30:38;;;;;;;6.13;2.88;;;;;;;25.00;45.31;99710.16;6285138;22;20042;-89
2022/06/21 11:33:34;;;;;;;6.32;2.65;;;;;;;25.02;45.42;99707.56;6284787;22;20602;-89
2022/06/21 11:36:23;;;;;;;5.93;2.90;;;;;;;25.22;46.02;99708.97;6281211;22;20082;-87
2022/06/21 11:39:15;;;;;;;5.38;2.80;;;;;;;25.51;45.65;99707.84;6287339;22;20018;-88
2022/06/21 11:42:09;;;;;;;5.97;2.88;;;;;;;25.75;45.17;99695.50;6309198;22;20019;-90
2022/06/21 11:45:15;;;;;;;7.10;3.33;;;;;;;26.22;44.36;99696.22;6257100;22;20094;-88
2022/06/21 11:47:54;;;;;;;6.15;3.53;;;;;;;26.53;42.71;99702.91;6289230;22;20023;-88
2022/06/21 11:50:44;;;;;;;4.70;3.33;;;;;;;26.33;42.22;99707.31;6260415;22;20593;-88
2022/06/21 11:53:28;;;;;;;5.03;3.30;;;;;;;26.25;43.75;99708.53;6259775;22;20023;-88
2022/06/21 11:56:00;;;;;;;5.25;2.97;;;;;;;26.07;44.07;99689.59;6289463;22;20484;-89
2022/06/21 11:58:38;;;;;;;5.85;3.33;;;;;;;26.04;43.43;99696.38;6239343;22;20397;-88
2022/06/21 12:01:15;;;;;;;5.05;2.95;;;;;;;26.06;43.82;99690.88;6281887;22;20051;-86
2022/06/21 12:04:03;;;;;;;7.53;3.20;;;;;;;26.17;43.87;99693.47;6258560;22;20019;-89
2022/06/21 12:07:21;;;;;;;6.43;3.47;;;;;;;26.41;44.08;99690.31;6278833;22;20026;-90
2022/06/21 12:09:57;;;;;;;5.78;3.72;;;;;;;26.53;43.43;99688.69;6125577;23;20547;-87
2022/06/21 12:12:51;;;;;;;6.00;2.90;;;;;;;26.62;42.86;99693.91;6255441;22;20011;-86
2022/06/21 12:15:53;;;;;;;10.10;3.40;;;;;;;26.71;43.04;99689.81;6255357;22;20019;-87
2022/06/21 12:18:22;;;;;;;5.60;3.00;;;;;;;26.53;43.25;99691.53;6256515;22;20011;-84
2022/06/21 12:20:54;;;;;;;5.65;3.25;;;;;;;26.40;43.29;99691.66;6285066;22;20003;-85
2022/06/21 12:23:41;;;;;;;6.50;3.45;;;;;;;26.36;43.37;99682.69;6230074;22;20092;-86
2022/06/21 12:26:10;;;;;;;5.38;3.15;;;;;;;26.29;43.08;99672.75;6260391;22;20012;-86